Bowerman Airport Hoquiam US
ICAO: KHQM
IATA: HQM
Category: Medium
Scheduled Services: No

Elevation: 18 ft
TransAlt. 18000 ft.

Airport Communications:
ASOS:135.775
SEATTLE CNTR:128.3
SEATTLE RDO:122.2
CTAF/UNICOM:122.7

KHQM Zoom In..

Runways:

(A) RW 06 length 5000 ft width 150 ft
---- / hdg 60

(B) RW 24 length 5000 ft width 150 ft
ILS 108.70 / hdg 240

Location; KHQM
Day. 13 / Time. 13.53 Zulu
* Altimeter: 30.16
* Temperature: 09° c. 48.2°f.
* Wind from: 000° Speed 00 kn.
Dewpoint: 08° c.
Visibility: 10 Statute Miles.
Clouds: Clear (automated report).

KHQM 131353Z AUTO 00000KT 10SM CLR 09/08 A3016 RMK AO2 SLP215 T00890078

Going to: --> -->


Wind - Calm.

 
 
jpsmedia worldairports.se 2020   terms of use